Time;durP1;ratioP1;P1;durP2;ratioP2;P2;SDS_P1;SDS_P2;PMS_P1;PMS_P2;Temp;Humidity;BMP_temperature;BMP_pressure;BME280_temperature;BME280_humidity;BME280_pressure;Samples;Min_cycle;Max_cycle;Signal;HPM_P1;HPM_P2
2021/10/13 00:00:33;;;;;;;4.45;1.95;;;;;;;7.46;87.01;102349.41;5055016;28;20033;-66
2021/10/13 00:02:58;;;;;;;9.10;2.25;;;;;;;7.48;87.26;102350.09;5057091;28;20024;-65
2021/10/13 00:05:24;;;;;;;10.50;2.92;;;;;;;7.48;86.66;102352.69;5055015;28;20021;-68
2021/10/13 00:07:49;;;;;;;9.82;2.40;;;;;;;7.40;87.11;102355.06;5055805;28;20028;-66
2021/10/13 00:10:14;;;;;;;7.57;2.40;;;;;;;7.40;87.34;102347.34;5055903;28;20387;-67
2021/10/13 00:12:39;;;;;;;8.40;2.15;;;;;;;7.45;87.04;102353.75;5056057;28;20036;-66
2021/10/13 00:15:09;;;;;;;10.98;2.25;;;;;;;7.51;87.50;102349.00;5056131;28;20457;-66
2021/10/13 00:17:35;;;;;;;7.25;2.22;;;;;;;7.55;87.02;102353.78;5054999;28;20031;-65
2021/10/13 00:20:02;;;;;;;6.28;1.80;;;;;;;7.56;87.48;102347.69;5056030;28;20087;-66
2021/10/13 00:22:28;;;;;;;8.02;2.00;;;;;;;7.56;87.19;102337.41;5054680;28;20467;-66
2021/10/13 00:24:53;;;;;;;8.82;2.10;;;;;;;7.51;87.03;102336.16;5055907;28;20111;-66
2021/10/13 00:27:18;;;;;;;5.20;1.85;;;;;;;7.52;87.82;102345.50;5054637;28;20025;-66
2021/10/13 00:29:43;;;;;;;7.10;1.90;;;;;;;7.56;87.41;102339.97;5055809;28;20025;-67
2021/10/13 00:32:09;;;;;;;8.57;2.22;;;;;;;7.61;87.53;102335.25;5055777;28;20021;-66
2021/10/13 00:34:35;;;;;;;11.45;1.80;;;;;;;7.63;87.77;102330.81;5055713;28;20037;-67
2021/10/13 00:37:02;;;;;;;5.13;2.03;;;;;;;7.59;87.58;102324.28;5055716;28;20427;-67
2021/10/13 00:39:27;;;;;;;5.68;1.63;;;;;;;7.69;88.07;102330.28;5055678;28;20070;-67
2021/10/13 00:41:53;;;;;;;8.93;2.10;;;;;;;7.79;88.28;102335.44;5055518;28;20116;-66
2021/10/13 00:44:18;;;;;;;5.18;1.85;;;;;;;7.83;87.46;102346.31;5056142;28;20108;-66
2021/10/13 00:46:43;;;;;;;12.48;2.72;;;;;;;7.90;86.93;102350.00;5055511;28;20500;-68
2021/10/13 00:49:09;;;;;;;4.72;1.83;;;;;;;7.86;86.59;102354.59;5055535;28;20068;-66
2021/10/13 00:51:35;;;;;;;6.20;1.75;;;;;;;7.86;87.98;102348.63;5054199;28;20083;-67
2021/10/13 00:54:01;;;;;;;5.35;1.88;;;;;;;7.84;87.85;102337.66;5054355;28;20060;-66
2021/10/13 00:56:26;;;;;;;7.65;2.10;;;;;;;7.93;87.67;102354.88;5055395;28;20079;-67
2021/10/13 00:58:53;;;;;;;8.48;1.92;;;;;;;7.91;87.43;102349.03;5055290;28;20040;-67
2021/10/13 01:01:23;;;;;;;12.18;1.83;;;;;;;7.80;87.96;102346.59;5053878;28;20403;-67
2021/10/13 01:04:04;;;;;;;7.85;1.85;;;;;;;7.85;88.01;102350.41;5055759;28;20024;-68
2021/10/13 01:06:54;;;;;;;6.85;1.60;;;;;;;7.98;88.17;102339.03;5055329;28;20510;-68
2021/10/13 01:09:26;;;;;;;5.65;1.80;;;;;;;8.09;88.07;102344.09;5055339;28;20024;-68
2021/10/13 01:12:18;;;;;;;9.43;1.88;;;;;;;8.23;88.07;102343.72;5055413;28;20017;-68
2021/10/13 01:14:55;;;;;;;5.43;1.70;;;;;;;8.28;87.83;102345.88;5055291;28;20107;-67
2021/10/13 01:17:40;;;;;;;7.35;2.35;;;;;;;8.29;87.72;102338.03;5055057;28;20059;-67
2021/10/13 01:20:47;;;;;;;5.97;1.70;;;;;;;8.28;87.61;102333.81;5054891;28;20025;-68
2021/10/13 01:23:40;;;;;;;6.97;2.10;;;;;;;8.28;87.36;102336.38;5040275;28;20045;-68
2021/10/13 01:26:36;;;;;;;7.88;2.00;;;;;;;8.25;87.60;102325.53;5054968;28;20029;-66
2021/10/13 01:29:07;;;;;;;6.70;2.03;;;;;;;8.42;88.42;102335.22;5054740;28;20020;-66
2021/10/13 01:31:40;;;;;;;6.07;1.95;;;;;;;8.44;87.43;102341.06;5054757;28;20049;-66
2021/10/13 01:34:10;;;;;;;10.48;2.13;;;;;;;8.28;88.02;102351.03;5055051;28;20028;-66
2021/10/13 01:36:40;;;;;;;7.40;2.10;;;;;;;8.19;88.81;102338.94;5053263;28;20029;-66
2021/10/13 01:39:06;;;;;;;7.40;1.98;;;;;;;8.13;88.13;102353.97;5054814;28;20494;-66
2021/10/13 01:41:34;;;;;;;8.93;2.30;;;;;;;8.16;87.63;102355.47;5054623;28;20087;-67
2021/10/13 01:44:02;;;;;;;6.05;1.90;;;;;;;8.18;87.27;102358.75;5054674;28;20350;-67
2021/10/13 01:46:28;;;;;;;8.02;2.00;;;;;;;8.12;87.44;102351.56;5054466;28;20021;-67
2021/10/13 01:48:56;;;;;;;5.45;2.00;;;;;;;8.02;87.96;102366.16;5054362;28;20059;-67
2021/10/13 01:51:24;;;;;;;5.20;2.00;;;;;;;7.92;88.24;102355.84;5054406;28;20028;-67
2021/10/13 01:53:51;;;;;;;5.15;1.98;;;;;;;7.87;88.47;102363.13;5053010;28;20021;-67
2021/10/13 01:56:17;;;;;;;6.18;1.90;;;;;;;7.87;88.53;102358.78;5054268;28;20029;-67
2021/10/13 01:58:42;;;;;;;5.18;1.90;;;;;;;7.89;88.34;102368.97;5054165;28;20075;-67
2021/10/13 02:01:11;;;;;;;6.57;1.98;;;;;;;7.71;88.41;102355.06;5054545;28;20039;-67
2021/10/13 02:03:38;;;;;;;4.97;1.65;;;;;;;7.68;88.18;102371.56;5054115;28;20025;-67
2021/10/13 02:06:05;;;;;;;10.40;2.00;;;;;;;7.58;88.58;102356.09;5053664;28;20025;-67
2021/10/13 02:08:31;;;;;;;5.93;2.15;;;;;;;7.76;88.41;102382.03;5052753;28;20024;-67
2021/10/13 02:11:00;;;;;;;9.90;2.20;;;;;;;7.75;88.20;102371.88;5054042;28;20436;-67
2021/10/13 02:13:30;;;;;;;8.38;2.10;;;;;;;7.71;88.46;102381.63;5052678;28;20031;-67
2021/10/13 02:15:58;;;;;;;6.40;2.03;;;;;;;7.69;89.28;102375.78;5054074;28;20074;-67
2021/10/13 02:18:27;;;;;;;5.18;1.73;;;;;;;7.75;89.11;102372.69;5054088;28;20025;-67
2021/10/13 02:20:57;;;;;;;7.78;2.08;;;;;;;7.82;88.53;102372.97;5053759;28;20032;-67
2021/10/13 02:23:30;;;;;;;4.72;1.90;;;;;;;7.93;87.95;102370.31;5052462;28;20468;-67
2021/10/13 02:25:57;;;;;;;4.70;1.92;;;;;;;7.87;88.16;102363.94;5053741;28;20033;-67
2021/10/13 02:28:36;;;;;;;7.80;2.05;;;;;;;7.79;88.52;102356.03;5052500;28;20021;-67
2021/10/13 02:31:01;;;;;;;6.90;1.98;;;;;;;7.75;88.59;102359.03;5054137;28;20414;-67
2021/10/13 02:33:27;;;;;;;6.97;2.25;;;;;;;7.76;89.43;102358.06;5053617;28;20108;-67
2021/10/13 02:35:52;;;;;;;7.28;2.00;;;;;;;7.83;88.99;102351.47;5053406;28;20095;-67
2021/10/13 02:38:17;;;;;;;5.68;2.00;;;;;;;7.85;88.23;102359.84;5053527;28;20029;-67
2021/10/13 02:40:43;;;;;;;8.93;1.92;;;;;;;7.79;87.99;102358.63;5053475;28;20025;-67
2021/10/13 02:43:09;;;;;;;4.47;1.60;;;;;;;7.80;88.44;102369.75;5051918;28;20056;-67
2021/10/13 02:45:38;;;;;;;11.43;2.30;;;;;;;7.66;87.48;102365.75;5053372;28;20096;-67
2021/10/13 02:48:12;;;;;;;9.63;2.40;;;;;;;7.21;90.05;102376.34;5053715;28;20028;-68
2021/10/13 02:50:48;;;;;;;6.70;2.17;;;;;;;7.23;89.99;102370.13;5053467;28;20100;-67
2021/10/13 02:53:52;;;;;;;11.20;2.03;;;;;;;7.36;89.75;102372.50;5052148;28;20036;-67
2021/10/13 02:56:24;;;;;;;;;;;;;;;7.33;88.53;102370.19;5049586;28;20037;-67
2021/10/13 02:59:01;;;;;;;6.65;1.65;;;;;;;7.17;88.77;102380.91;5053757;28;20351;-67
2021/10/13 03:01:31;;;;;;;5.80;1.80;;;;;;;7.11;89.20;102384.00;5053749;28;20112;-67
2021/10/13 03:03:59;;;;;;;7.50;2.00;;;;;;;7.07;89.17;102386.94;5053314;28;20458;-67
2021/10/13 03:06:34;;;;;;;7.05;1.90;;;;;;;7.05;89.66;102393.94;5053180;28;20044;-67
2021/10/13 03:09:01;;;;;;;7.35;2.00;;;;;;;7.11;88.98;102386.56;5053473;28;20025;-67
2021/10/13 03:11:29;;;;;;;6.57;2.15;;;;;;;7.13;89.19;102397.50;5053165;28;20021;-67
2021/10/13 03:13:56;;;;;;;6.45;2.10;;;;;;;7.12;90.03;102398.47;5053123;28;20078;-67
2021/10/13 03:16:22;;;;;;;10.90;1.85;;;;;;;7.21;89.02;102400.28;5053115;28;20025;-67
2021/10/13 03:18:49;;;;;;;5.68;1.73;;;;;;;7.24;88.50;102394.06;5056857;28;20468;-67
2021/10/13 03:21:15;;;;;;;10.90;2.22;;;;;;;7.20;89.12;102403.81;5057138;28;20024;-66
2021/10/13 03:23:41;;;;;;;4.68;1.80;;;;;;;7.17;88.09;102390.41;5055812;28;20067;-67
2021/10/13 03:26:14;;;;;;;5.82;3.00;;;;;;;7.19;88.83;102394.47;5055882;28;20384;-67
2021/10/13 03:28:40;;;;;;;8.07;2.88;;;;;;;7.18;88.74;102392.00;5056993;28;20032;-67
2021/10/13 03:31:06;;;;;;;8.05;2.50;;;;;;;7.16;88.69;102394.72;5056925;28;20032;-67
2021/10/13 03:33:38;;;;;;;4.95;2.50;;;;;;;7.13;88.50;102396.72;5056887;28;20033;-67
2021/10/13 03:36:08;;;;;;;6.28;2.20;;;;;;;7.12;88.37;102402.78;5056797;28;20159;-67
2021/10/13 03:38:34;;;;;;;4.75;2.70;;;;;;;7.06;88.41;102393.81;5056815;28;20016;-67
2021/10/13 03:41:00;;;;;;;13.07;2.95;;;;;;;7.08;88.56;102411.69;5056674;28;20025;-67
2021/10/13 03:43:25;;;;;;;5.88;2.38;;;;;;;7.11;88.89;102404.56;5056862;28;20400;-68
2021/10/13 03:45:50;;;;;;;10.45;2.80;;;;;;;7.23;88.70;102405.31;5056960;28;20101;-67
2021/10/13 03:48:16;;;;;;;7.32;2.50;;;;;;;7.39;88.70;102397.16;5056633;28;20464;-67
2021/10/13 03:50:41;;;;;;;11.68;2.70;;;;;;;7.44;88.99;102393.25;5056522;28;20060;-66
2021/10/13 03:53:07;;;;;;;8.30;2.55;;;;;;;7.22;88.49;102396.78;5056810;28;20021;-66
2021/10/13 03:55:32;;;;;;;10.52;2.20;;;;;;;7.13;89.07;102400.09;5057056;28;20376;-66
2021/10/13 03:57:57;;;;;;;9.25;2.30;;;;;;;7.16;89.10;102397.28;5055215;28;20399;-67
2021/10/13 04:00:24;;;;;;;10.02;2.65;;;;;;;7.23;89.29;102400.19;5056489;28;20376;-67
2021/10/13 04:02:49;;;;;;;10.05;2.45;;;;;;;7.23;88.31;102392.47;5056377;28;20032;-67
2021/10/13 04:05:15;;;;;;;8.75;2.30;;;;;;;7.26;88.12;102401.69;5055070;28;20021;-66
2021/10/13 04:07:41;;;;;;;9.05;2.90;;;;;;;7.30;88.88;102400.47;5056273;28;20090;-66
2021/10/13 04:10:09;;;;;;;5.45;2.25;;;;;;;7.24;88.49;102410.31;5056281;28;20024;-66
2021/10/13 04:12:35;;;;;;;7.68;2.33;;;;;;;7.23;88.39;102410.47;5056289;28;20029;-66
2021/10/13 04:15:03;;;;;;;6.60;2.58;;;;;;;7.22;88.67;102406.25;5056224;28;20100;-66
2021/10/13 04:17:28;;;;;;;9.50;2.78;;;;;;;7.23;88.73;102403.56;5055899;28;20028;-66
2021/10/13 04:19:53;;;;;;;6.97;2.40;;;;;;;7.18;87.85;102407.44;5056589;28;20108;-67
2021/10/13 04:22:19;;;;;;;10.30;2.47;;;;;;;7.17;88.69;102405.81;5056269;28;20029;-66
2021/10/13 04:24:44;;;;;;;7.30;2.30;;;;;;;7.13;88.47;102412.13;5055979;28;20105;-66
2021/10/13 04:27:09;;;;;;;8.85;2.30;;;;;;;7.16;88.78;102420.44;5055919;28;20029;-66
2021/10/13 04:29:35;;;;;;;7.20;2.80;;;;;;;7.17;88.53;102427.19;5055595;28;20464;-66
2021/10/13 04:32:00;;;;;;;6.80;2.50;;;;;;;7.17;88.41;102419.47;5055869;28;20035;-66
2021/10/13 04:34:25;;;;;;;9.43;2.40;;;;;;;7.08;88.32;102419.38;5054592;28;20110;-66
2021/10/13 04:36:50;;;;;;;7.68;2.40;;;;;;;6.95;88.49;102410.09;5055645;28;20468;-66
2021/10/13 04:39:16;;;;;;;5.93;2.50;;;;;;;6.90;88.70;102417.34;5055656;28;20100;-66
2021/10/13 04:41:41;;;;;;;6.82;2.47;;;;;;;7.01;89.28;102416.50;5054111;28;20049;-67
2021/10/13 04:44:06;;;;;;;5.90;2.50;;;;;;;6.97;88.87;102428.00;5055547;28;20550;-66
2021/10/13 04:46:32;;;;;;;7.47;2.70;;;;;;;6.96;88.12;102423.75;5054328;28;20039;-67
2021/10/13 04:48:59;;;;;;;5.75;2.67;;;;;;;7.03;88.35;102418.97;5055535;28;20379;-67
2021/10/13 04:51:24;;;;;;;6.63;2.40;;;;;;;7.08;88.86;102421.97;5056009;28;20025;-66
2021/10/13 04:53:49;;;;;;;5.47;2.55;;;;;;;7.18;89.21;102420.28;5055972;28;20108;-66
2021/10/13 04:56:14;;;;;;;8.68;2.45;;;;;;;7.28;88.81;102417.78;5055413;28;20029;-67
2021/10/13 04:58:40;;;;;;;7.43;2.35;;;;;;;7.38;88.72;102419.47;5055374;28;20451;-66
2021/10/13 05:01:07;;;;;;;10.93;2.50;;;;;;;7.45;88.43;102424.94;5055758;28;20107;-66
2021/10/13 05:03:32;;;;;;;7.10;2.85;;;;;;;7.48;89.12;102417.00;5055304;28;20025;-67
2021/10/13 05:05:58;;;;;;;5.57;2.45;;;;;;;7.54;88.61;102413.91;5055326;28;20029;-67
2021/10/13 05:08:25;;;;;;;6.35;2.30;;;;;;;7.61;88.39;102419.34;5055125;28;20071;-67
2021/10/13 05:10:50;;;;;;;6.43;2.22;;;;;;;7.76;88.64;102419.84;5053790;28;20021;-67
2021/10/13 05:13:15;;;;;;;10.52;2.60;;;;;;;7.75;89.11;102413.06;5054290;28;20384;-67
2021/10/13 05:15:43;;;;;;;8.05;2.53;;;;;;;7.80;88.92;102424.59;5055062;28;20025;-67
2021/10/13 05:18:10;;;;;;;5.85;2.63;;;;;;;7.86;88.65;102429.25;5053774;28;20035;-67
2021/10/13 05:20:35;;;;;;;6.97;2.47;;;;;;;7.98;88.27;102427.38;5054946;28;20467;-67
2021/10/13 05:23:01;;;;;;;12.00;3.00;;;;;;;8.04;88.04;102426.88;5054846;28;20055;-67
2021/10/13 05:25:26;;;;;;;7.68;2.70;;;;;;;8.12;87.90;102426.22;5054836;28;20060;-67
2021/10/13 05:27:51;;;;;;;6.88;2.83;;;;;;;8.11;87.89;102427.16;5053735;28;20433;-67
2021/10/13 05:30:16;;;;;;;9.45;2.70;;;;;;;8.11;87.90;102438.28;5054982;28;20040;-67
2021/10/13 05:32:42;;;;;;;6.88;2.58;;;;;;;8.10;88.59;102436.66;5054737;28;20024;-67
2021/10/13 05:35:07;;;;;;;5.85;2.65;;;;;;;8.05;88.83;102438.78;5053455;28;20371;-67
2021/10/13 05:37:32;;;;;;;10.18;2.70;;;;;;;8.05;89.38;102443.94;5054667;28;20032;-67
2021/10/13 05:39:58;;;;;;;6.90;2.80;;;;;;;8.05;88.87;102438.78;5054051;28;20035;-67
2021/10/13 05:42:23;;;;;;;7.63;2.90;;;;;;;8.05;88.63;102443.94;5053116;28;20033;-66
2021/10/13 05:44:48;;;;;;;10.40;3.00;;;;;;;8.01;88.58;102447.72;5054592;28;20027;-68
2021/10/13 05:47:13;;;;;;;9.50;2.78;;;;;;;7.99;88.51;102449.59;5053607;28;20025;-64
2021/10/13 05:49:39;;;;;;;8.32;2.40;;;;;;;7.99;87.47;102454.75;5054481;28;20048;-68
2021/10/13 05:52:05;;;;;;;6.72;2.78;;;;;;;8.00;88.57;102450.41;5054577;28;20024;-68
2021/10/13 05:54:31;;;;;;;8.60;2.97;;;;;;;8.03;89.03;102452.75;5054413;28;20066;-67
2021/10/13 05:56:56;;;;;;;7.55;3.25;;;;;;;8.03;88.77;102456.16;5054434;28;20383;-67
2021/10/13 05:59:22;;;;;;;7.78;2.75;;;;;;;7.90;88.80;102450.38;5054658;28;20024;-67
2021/10/13 06:01:47;;;;;;;8.40;2.58;;;;;;;7.91;89.25;102454.56;5053598;28;20033;-69
2021/10/13 06:04:12;;;;;;;8.43;2.70;;;;;;;7.97;88.85;102453.25;5054897;28;20471;-66
2021/10/13 06:06:38;;;;;;;8.05;2.97;;;;;;;8.00;87.91;102460.72;5054961;28;20025;-66
2021/10/13 06:09:03;;;;;;;4.90;2.53;;;;;;;7.89;87.99;102453.91;5057776;28;20047;-67
2021/10/13 06:11:28;;;;;;;10.30;2.67;;;;;;;7.86;88.14;102467.84;5055223;28;20107;-67
2021/10/13 06:13:53;;;;;;;12.38;3.22;;;;;;;7.89;88.28;102469.34;5055489;28;20028;-67
2021/10/13 06:16:20;;;;;;;4.50;2.53;;;;;;;7.87;87.84;102466.88;5055521;28;20080;-67
2021/10/13 06:18:47;;;;;;;8.75;2.40;;;;;;;7.95;87.66;102473.19;5054375;28;20368;-67
2021/10/13 06:21:12;;;;;;;8.40;2.60;;;;;;;7.82;88.10;102456.16;5064259;28;20021;-67
2021/10/13 06:26:59;;;;;;;6.78;2.60;;;;;;;7.84;87.96;102482.59;5068503;28;20051;-67
2021/10/13 06:29:25;;;;;;;9.45;2.47;;;;;;;7.92;88.26;102484.53;5068907;28;20029;-67
2021/10/13 06:31:50;;;;;;;8.25;2.50;;;;;;;8.05;88.40;102482.56;5068534;28;20017;-68
2021/10/13 06:34:16;;;;;;;16.38;7.22;;;;;;;8.09;88.43;102489.09;5068582;28;20032;-66
2021/10/13 06:36:42;;;;;;;8.07;3.47;;;;;;;8.05;87.40;102492.03;5067837;28;20123;-67
2021/10/13 06:39:08;;;;;;;11.05;3.53;;;;;;;8.00;87.79;102489.88;5066579;28;20100;-69
2021/10/13 06:41:33;;;;;;;12.07;5.60;;;;;;;8.07;88.01;102493.56;5061791;28;20086;-68
2021/10/13 06:43:58;;;;;;;9.40;4.28;;;;;;;8.18;88.08;102497.00;5057542;28;20047;-71
2021/10/13 06:46:23;;;;;;;10.73;4.20;;;;;;;8.24;87.70;102494.72;5055497;28;20033;-65
2021/10/13 06:48:49;;;;;;;10.27;3.45;;;;;;;8.31;87.57;102497.56;5056849;28;20100;-67
2021/10/13 06:51:14;;;;;;;7.05;3.40;;;;;;;8.40;87.02;102509.72;5055563;28;20025;-67
2021/10/13 06:53:42;;;;;;;10.88;3.30;;;;;;;8.46;86.34;102505.78;5056046;28;20021;-66
2021/10/13 06:56:08;;;;;;;8.70;3.30;;;;;;;8.62;86.21;102511.28;5054631;28;20491;-67
2021/10/13 06:58:33;;;;;;;11.40;3.55;;;;;;;8.65;86.11;102515.34;5056383;28;20025;-67
2021/10/13 07:00:58;;;;;;;8.55;3.38;;;;;;;8.64;86.60;102518.88;5055452;28;20048;-68
2021/10/13 07:03:23;;;;;;;12.15;3.55;;;;;;;8.68;86.57;102521.06;5056051;28;20025;-67
2021/10/13 07:05:49;;;;;;;9.00;3.60;;;;;;;8.95;85.88;102519.63;5055164;28;20036;-67
2021/10/13 07:08:14;;;;;;;11.18;3.65;;;;;;;9.22;85.68;102519.78;5054783;28;20032;-67
2021/10/13 07:10:39;;;;;;;12.00;3.90;;;;;;;9.39;84.23;102525.22;5054633;28;20459;-67
2021/10/13 07:13:05;;;;;;;11.35;4.15;;;;;;;9.49;85.25;102518.28;5054256;28;20028;-66
2021/10/13 07:15:30;;;;;;;10.48;4.10;;;;;;;9.58;84.88;102520.06;5054021;28;20025;-67
2021/10/13 07:17:55;;;;;;;13.02;3.35;;;;;;;9.51;85.91;102523.31;5053835;28;20036;-67
2021/10/13 07:20:22;;;;;;;12.68;3.60;;;;;;;9.58;85.76;102521.81;5053574;28;20025;-67
2021/10/13 07:22:47;;;;;;;8.23;3.60;;;;;;;9.67;86.02;102521.00;5053429;28;20379;-67
2021/10/13 07:25:12;;;;;;;10.25;3.00;;;;;;;9.81;85.15;102520.56;5053451;28;20024;-67
2021/10/13 07:27:38;;;;;;;7.63;3.20;;;;;;;10.08;85.37;102516.41;5053706;28;20040;-67
2021/10/13 07:30:06;;;;;;;18.08;3.50;;;;;;;10.47;83.69;102521.44;5053218;28;20035;-67
2021/10/13 07:32:34;;;;;;;11.77;3.85;;;;;;;10.72;83.64;102522.53;5053204;28;20029;-67
2021/10/13 07:35:00;;;;;;;15.77;3.15;;;;;;;11.01;80.82;102519.75;5051698;28;20108;-66
2021/10/13 07:37:27;;;;;;;10.05;2.75;;;;;;;11.27;79.93;102518.06;5053054;28;20443;-67
2021/10/13 07:39:54;;;;;;;7.28;2.60;;;;;;;11.08;79.56;102520.81;5053049;28;20021;-67
2021/10/13 07:42:19;;;;;;;7.80;2.70;;;;;;;11.71;78.51;102517.28;5052750;28;20396;-68
2021/10/13 07:44:45;;;;;;;13.55;2.83;;;;;;;12.81;74.04;102523.44;5052824;28;20028;-67
2021/10/13 07:47:11;;;;;;;8.25;2.28;;;;;;;14.57;67.76;102519.34;5053001;28;20025;-67
2021/10/13 07:49:38;;;;;;;7.07;2.40;;;;;;;14.42;67.35;102516.63;5052964;28;20036;-67
2021/10/13 07:52:04;;;;;;;8.55;2.30;;;;;;;14.53;66.28;102520.63;5052988;28;20021;-67
2021/10/13 07:54:29;;;;;;;7.10;2.20;;;;;;;15.01;65.84;102529.94;5051709;28;20442;-68
2021/10/13 07:56:54;;;;;;;11.00;2.50;;;;;;;17.35;57.51;102524.94;5052262;28;20020;-68
2021/10/13 07:59:19;;;;;;;10.52;2.28;;;;;;;17.21;57.14;102517.19;5055211;28;20074;-67
2021/10/13 08:01:45;;;;;;;10.63;2.42;;;;;;;18.35;54.28;102512.44;5054092;28;20017;-68
2021/10/13 08:04:13;;;;;;;6.70;2.25;;;;;;;19.53;51.31;102527.69;5055750;28;20040;-68
2021/10/13 08:06:38;;;;;;;8.70;2.00;;;;;;;19.40;50.52;102528.50;5056819;28;20024;-67
2021/10/13 08:09:03;;;;;;;8.65;2.38;;;;;;;18.87;53.06;102538.97;5056338;28;20028;-68
2021/10/13 08:14:50;;;;;;;9.32;2.15;;;;;;;18.78;52.50;102535.72;5056659;28;20412;-68
2021/10/13 08:17:16;;;;;;;5.15;2.10;;;;;;;16.75;59.30;102534.03;5056766;28;20025;-67
2021/10/13 08:19:41;;;;;;;8.70;1.90;;;;;;;17.27;58.28;102532.13;5055162;28;20399;-68
2021/10/13 08:22:06;;;;;;;6.78;2.03;;;;;;;17.88;57.08;102548.03;5055984;28;20021;-68
2021/10/13 08:24:33;;;;;;;8.82;2.47;;;;;;;18.10;56.59;102551.41;5056024;28;20028;-68
2021/10/13 08:26:59;;;;;;;10.23;2.20;;;;;;;18.90;53.48;102541.19;5056036;28;20036;-68
2021/10/13 08:29:24;;;;;;;5.68;1.90;;;;;;;18.52;55.81;102546.09;5055910;28;20029;-68
2021/10/13 08:31:49;;;;;;;9.25;2.10;;;;;;;19.59;51.20;102547.84;5054532;28;20472;-68
2021/10/13 08:34:14;;;;;;;9.90;2.20;;;;;;;21.03;48.10;102548.47;5056581;28;20029;-69
2021/10/13 08:36:40;;;;;;;8.57;2.10;;;;;;;23.21;41.46;102554.81;5054597;28;20347;-68
2021/10/13 08:39:05;;;;;;;8.35;1.70;;;;;;;22.18;43.87;102561.97;5055743;28;20025;-68
2021/10/13 08:41:31;;;;;;;9.40;2.10;;;;;;;23.83;39.62;102559.66;5055406;28;20048;-68
2021/10/13 08:43:56;;;;;;;7.45;2.10;;;;;;;21.77;44.23;102559.97;5055834;28;20100;-68
2021/10/13 08:46:22;;;;;;;5.40;2.00;;;;;;;17.55;56.35;102561.69;5056211;28;20032;-68
2021/10/13 08:48:47;;;;;;;5.68;1.80;;;;;;;16.30;60.79;102563.81;5056194;28;20526;-68
2021/10/13 08:51:12;;;;;;;6.47;1.88;;;;;;;15.99;62.25;102554.34;5056194;28;20419;-69
2021/10/13 08:53:37;;;;;;;6.07;1.63;;;;;;;17.16;60.54;102561.34;5055499;28;20029;-69
2021/10/13 08:56:03;;;;;;;10.10;1.70;;;;;;;18.44;55.76;102544.47;5055370;28;20048;-69
2021/10/13 08:58:29;;;;;;;6.63;1.70;;;;;;;17.57;57.41;102559.66;5054518;28;20021;-69
2021/10/13 09:01:03;;;;;;;5.63;1.88;;;;;;;18.74;53.68;102554.66;5054114;28;20021;-66
2021/10/13 09:03:37;;;;;;;7.10;1.80;;;;;;;18.06;57.11;102565.03;5055272;28;20475;-67
2021/10/13 09:06:19;;;;;;;7.45;1.90;;;;;;;16.76;60.44;102566.16;5055757;28;20410;-67
2021/10/13 09:08:53;;;;;;;6.68;1.77;;;;;;;15.49;63.62;102564.41;5055723;28;20129;-67
2021/10/13 09:11:31;;;;;;;9.32;1.70;;;;;;;14.95;65.51;102553.28;5055086;28;20032;-68
2021/10/13 09:14:13;;;;;;;9.98;1.63;;;;;;;15.22;65.88;102564.94;5054987;28;20021;-68
2021/10/13 09:17:02;;;;;;;7.40;1.80;;;;;;;15.89;63.89;102556.44;5053437;28;20040;-68
2021/10/13 09:19:35;;;;;;;9.60;2.13;;;;;;;16.51;63.63;102558.63;5055030;28;20104;-68
2021/10/13 09:22:03;;;;;;;8.23;1.90;;;;;;;19.53;53.30;102570.44;5054961;28;20472;-68
2021/10/13 09:24:30;;;;;;;7.28;1.67;;;;;;;21.84;46.75;102561.53;5054976;28;20433;-68
2021/10/13 09:27:15;;;;;;;9.10;1.80;;;;;;;19.93;50.07;102562.53;5054821;28;20051;-69
2021/10/13 09:33:17;;;;;;;18.13;2.20;;;;;;;19.14;52.71;102564.19;5054993;28;20083;-67
2021/10/13 09:35:48;;;;;;;5.68;1.55;;;;;;;19.23;51.87;102566.63;5053260;28;20542;-67
2021/10/13 09:38:17;;;;;;;6.60;1.77;;;;;;;24.80;38.90;102565.94;5054884;28;20025;-68
2021/10/13 09:40:43;;;;;;;8.13;1.58;;;;;;;25.56;36.26;102568.97;5053222;28;20032;-68
2021/10/13 09:43:27;;;;;;;6.43;1.83;;;;;;;26.86;33.50;102570.91;5054624;28;20057;-68
2021/10/13 09:46:20;;;;;;;6.00;1.45;;;;;;;25.82;34.74;102567.44;5052989;28;20017;-68
2021/10/13 09:48:58;;;;;;;7.85;1.40;;;;;;;22.22;41.31;102578.94;5051068;28;20060;-68
2021/10/13 09:51:23;;;;;;;4.32;1.50;;;;;;;27.02;32.33;102556.72;5054349;28;20494;-69
2021/10/13 09:53:52;;;;;;;8.23;2.03;;;;;;;27.63;30.87;102553.63;5054219;28;20025;-68
2021/10/13 09:56:34;;;;;;;9.93;1.90;;;;;;;29.14;29.89;102553.31;5036364;28;20086;-69
2021/10/13 09:59:10;;;;;;;6.00;1.30;;;;;;;22.22;41.67;102557.06;5053081;28;20025;-69
2021/10/13 10:01:36;;;;;;;4.95;1.40;;;;;;;22.27;41.55;102557.22;5054439;28;20032;-68
2021/10/13 10:04:03;;;;;;;5.75;1.60;;;;;;;20.21;45.43;102562.25;5054270;28;20361;-68
2021/10/13 10:06:29;;;;;;;5.00;1.20;;;;;;;18.93;51.30;102567.81;5054224;28;20116;-68
2021/10/13 10:08:54;;;;;;;6.32;1.67;;;;;;;20.16;46.69;102571.75;5052934;28;20061;-67
2021/10/13 10:11:28;;;;;;;8.95;2.10;;;;;;;18.13;51.05;102571.13;5054188;28;20427;-69
2021/10/13 10:13:53;;;;;;;12.75;1.92;;;;;;;17.16;55.29;102577.84;5054072;28;20548;-68
2021/10/13 10:16:38;;;;;;;12.20;2.15;;;;;;;17.16;55.42;102582.25;5053983;28;20127;-69
2021/10/13 10:19:24;;;;;;;10.75;1.80;;;;;;;17.20;54.70;102586.91;5053223;28;20033;-67
2021/10/13 10:22:06;;;;;;;5.57;1.50;;;;;;;17.23;55.01;102573.47;5053756;28;20025;-68
2021/10/13 10:24:36;;;;;;;15.48;2.03;;;;;;;17.51;54.59;102586.56;5053877;28;20353;-68
2021/10/13 10:27:24;;;;;;;6.55;1.88;;;;;;;18.27;53.71;102578.03;5053669;28;20467;-68
2021/10/13 10:30:02;;;;;;;6.43;2.15;;;;;;;17.68;53.59;102579.25;5052468;28;20028;-69
2021/10/13 10:32:27;;;;;;;10.57;2.00;;;;;;;17.58;53.82;102581.41;5053823;28;20025;-68
2021/10/13 10:35:05;;;;;;;4.57;1.50;;;;;;;17.42;54.62;102577.25;5053625;28;20032;-68
2021/10/13 10:37:39;;;;;;;4.95;1.63;;;;;;;16.66;56.78;102585.53;5053915;28;20112;-67
2021/10/13 10:40:12;;;;;;;5.60;1.65;;;;;;;16.37;58.93;102573.34;5053544;28;20029;-68
2021/10/13 10:42:54;;;;;;;6.00;1.38;;;;;;;15.76;57.51;102583.09;5053574;28;20388;-69
2021/10/13 10:45:26;;;;;;;10.98;1.63;;;;;;;15.25;62.38;102593.28;5053679;28;20039;-68
2021/10/13 10:48:05;;;;;;;6.15;1.75;;;;;;;14.62;64.86;102592.50;5053440;28;20029;-68
2021/10/13 10:50:41;;;;;;;8.52;1.52;;;;;;;14.20;67.86;102593.56;5053789;28;20020;-70
2021/10/13 10:53:06;;;;;;;7.68;1.80;;;;;;;13.86;69.83;102589.41;5053553;28;20424;-67
2021/10/13 10:55:40;;;;;;;7.50;1.30;;;;;;;13.69;69.05;102605.97;5052039;28;20140;-68
2021/10/13 10:58:21;;;;;;;6.68;1.33;;;;;;;13.98;70.06;102605.47;5052078;28;20033;-67
2021/10/13 11:01:07;;;;;;;3.25;1.40;;;;;;;14.50;67.90;102599.84;5053302;28;20104;-67
2021/10/13 11:03:41;;;;;;;5.63;1.85;;;;;;;15.51;65.04;102598.94;5051841;28;20028;-67
2021/10/13 11:06:20;;;;;;;6.68;1.80;;;;;;;15.87;62.91;102587.88;5053285;28;20040;-65
2021/10/13 11:08:51;;;;;;;6.95;1.55;;;;;;;15.86;63.11;102585.47;5053131;28;20034;-66
2021/10/13 11:11:18;;;;;;;4.93;1.80;;;;;;;16.35;61.30;102598.00;5053046;28;20033;-66
2021/10/13 11:14:00;;;;;;;6.30;1.30;;;;;;;16.83;59.97;102588.75;5053093;28;20025;-67
2021/10/13 11:16:26;;;;;;;5.63;1.37;;;;;;;17.17;58.10;102595.13;5053392;28;20159;-68
2021/10/13 11:18:52;;;;;;;8.10;1.88;;;;;;;17.65;56.85;102599.75;5053003;28;20782;-67
2021/10/13 11:21:17;;;;;;;5.60;1.50;;;;;;;17.78;57.41;102599.88;5053186;28;20102;-67
2021/10/13 11:23:44;;;;;;;6.97;1.45;;;;;;;17.85;57.59;102595.50;5052960;28;20021;-68
2021/10/13 11:26:10;;;;;;;8.10;1.30;;;;;;;18.86;54.19;102594.97;5052892;28;20036;-67
2021/10/13 11:28:37;;;;;;;4.07;1.13;;;;;;;18.52;52.73;102593.22;5052923;28;20052;-67
2021/10/13 11:31:05;;;;;;;5.85;1.42;;;;;;;17.30;55.41;102589.22;5052873;28;20469;-68
2021/10/13 11:33:30;;;;;;;6.30;1.60;;;;;;;21.63;44.54;102590.88;5052732;28;20102;-67
2021/10/13 11:36:00;;;;;;;7.03;1.13;;;;;;;21.88;42.46;102588.19;5052705;28;20033;-67
2021/10/13 11:38:26;;;;;;;4.68;1.20;;;;;;;24.02;38.71;102591.97;5054223;28;20032;-67
2021/10/13 11:40:51;;;;;;;4.60;1.08;;;;;;;20.46;44.97;102593.06;5055400;28;20119;-67
2021/10/13 11:43:18;;;;;;;4.75;1.27;;;;;;;25.79;34.83;102589.13;5056434;28;20071;-67
2021/10/13 11:45:53;;;;;;;6.53;1.20;;;;;;;21.72;41.27;102588.75;5056950;28;20357;-68